Terminal Aerodrome Forecast
Issued by NWS Wichita, KS

Home | Current Version | Previous Version | Graphics & Text | Print | Product List | Glossary On
Versions: 1 2 3 4 5 6 7 8 9 10 11 12 13 14 15 16 17 18 19 20 21 22 23 24
000
FTUS43 KICT 180055 AAB
TAFICT
TAF AMD
KICT 180055Z 1801/1824 08003KT P6SM SCT015 BKN150
     FM180600 13005KT P6SM OVC013
     FM181000 13007KT 4SM BR OVC007
      TEMPO 1810/1814 4SM TSRA SCT005 OVC015CB
     FM181400 18007KT P6SM OVC013=

USA.gov is the U.S. government's official web portal to all federal, state and local government web resources and services.